Extreme weather reports worldwide

Lowest temperatures

Station
 
Location
 
Name
 
Wind
Knots
Gust
Knots
Vis
SM
Temp/Dew
C
Baro
inHg
METAR
 
CWEU 3 15 -7/-10 30.00 CWEU 232100Z 31003KT 15SM -SN FEW017 BKN036 BKN110 M07/M10 A3000 RMK SC1SC4AC2 SLP170
THU BGTL Thule, GL Thule Air Base 0 6.21 -4/-7 30.16 BGTL 232056Z AUTO 00000KT 9999 CLR M04/M07 A3016 RMK AO2 SLP200 T10451071 51002 TSNO $
YKS UEEE Yakutsk, RU Yakutsk Airport 6 0.87 -3/-4 30.30 UEEE 232130Z 30003MPS 1400 R23L/1400N BR NSC M03/M04 Q1026 R23L/09//60 NOSIG RMK QFE761
CWUW 24 32 -3/-5 29.86 CWUW 232100Z AUTO 09024G32KT ////SM NCD M03/M05 A2986
LIMH IT Pian Rosà 8 6.21 -3/-3 30.15 LIMH 232055Z 21008KT 9999 FEW030 M03/M03 Q1021 RMK FEW MON LIB VAL NIL VIS MIN 9999

Station
 
Location
 
Name
 
Wind
Knots
Gust
Knots
Vis
SM
Temp/Dew
C
Baro
inHg
METAR
 
SFJ BGSF Kangerlussuaq, GL Kangerlussuaq Airport 6 -3/-12 30.09 BGSF 232050Z AUTO 06006KT 9999NDV NCD M03/M12 Q1019
JAV BGJN Ilulissat, GL Ilulissat Airport 5 -3/-12 30.18 BGJN 232050Z AUTO 07005KT 9999NDV NCD M03/M12 Q1022
UUD UIUU Ulan Ude, RU Ulan-Ude Airport (Mukhino) 4 6.21 -2/-3 30.03 UIUU 232130Z 29002MPS 190V350 9999 NSC M02/M03 Q1017 R26/60D NOSIG RMK QFE719/0959
TNM SCRM Isla Rey Jorge, AQ Teniente Rodolfo Marsh Martin Base 13 6.21 -2/-2 29.06 SCRM 232100Z 01013KT 9999 SCT004 BKN007 M02/M02 Q0984 NOSIG
CXSE 2 -2/-4 CXSE 232100Z AUTO 23002KT M02/M04 RMK AO1 SOG 05 1008 SLP118 T10201044
AKP PAKP Anaktuvuk Pass, US Anaktuvuk Pass Airport 9 9 -2/-5 29.60 PAKP 232056Z AUTO 04009KT 9SM -SN OVC022 M02/M06 A2960 RMK AO2 SLP067 P0000 60000 T10221056 58007 FZRANO
PAAD Deadhorse, US Point Thomson Airstrip 13 10 -1/-5 29.84 PAAD 232135Z AUTO 05013KT 10SM OVC024 M01/M06 A2984 RMK AO2 T10111057
PIZ PPIZ Point Lay, US Point Lay LRRS Airport 11 10 -1/-6 29.82 PPIZ 232133Z AUTO 07011KT 10SM OVC029 M01/M06 A2982 RMK AO2 FZRANO
LYR ENSB Longyearbyen, NO Svalbard Airport, Longyear 6 6.21 -1/-2 29.17 ENSB 232120Z 36006KT 9999 -SN FEW007 SCT012 BKN025 M01/M02 Q0988 RMK WIND 1400FT 02006KT
YRB CYRB Resolute Bay, CA Resolute Bay Airport 10 1.5 -1/-2 29.87 CYRB 232100Z 14010KT 1 1/2SM -SN BR SCT003 BKN015 OVC070 M01/M02 A2987 RMK ST4SC3AC1 SLP122
YIO CYIO Pond Inlet, CA Pond Inlet Airport 2 40 -1/-5 30.05 CYIO 232100Z 06002KT 40SM FEW023 FEW050 SCT085 BKN110 BKN280 M01/M05 A3005 RMK SC1SC1AC2AC1CC2 S00 AFT 15UTC/LAST STFD OBS/NEXT 241500 UTC SLP185
CXRB 10 -1/-1 CXRB 232100Z AUTO 14010KT M01/M02 RMK AO1 2PAST HR SOG 10 1003 SLP124 P0001 T10131016 50007
NUI PAQT Nuiqsut, US Nuiqsut Airport 5 10 -1/-6 29.86 PAQT 232057Z 04005KT 10SM OVC029 M01/M06 A2986 RMK (SCC FSS)
SCC PASC Deadhorse, US Deadhorse Airport 7 10 -1/-6 29.83 PASC 232053Z 06007KT 10SM OVC027 M01/M07 A2983 RMK AO2 SLP104 T10111067 50001
UUK PAKU Kuparuk, US Ugnu-Kuparuk Airport 6 10 -1/-6 29.85 PAKU 232052Z 06006KT 10SM R06/P6000FT OVC028 M01/M06 A2985
KUS BGKK Kulusuk, GL Kulusuk Airport 4 -1/-8 30.00 BGKK 232050Z AUTO 22004KT 9999NDV NCD M01/M08 Q1016
DQH PALP Nuiqsut, US Alpine Airstrip 3 10 -1/-7 29.86 PALP 232045Z 01003KT 10SM SCT028 BKN031 M01/M07 A2986
SCW UUYY Syktyvkar, RU Syktyvkar Airport 2 6.21 0/0 30.03 UUYY 232130Z 16001MPS CAVOK 00/M00 Q1017 R18/61D NOSIG RMK QFE754/1005
GDX UHMM Magadan, RU Sokol Airport 2 2.73 0/-3 30.24 UHMM 232130Z 06001MPS 4400 FU FEW016 M00/M03 Q1024 R10/70D NOSIG RMK MT OBSC QFE753 R28/11002MPS
YSY CYSY Sachs Harbour, CA Sachs Harbour (David Nasogaluak Jr. Saaryuaq) Airport 8 15 0/0 29.78 CYSY 232119Z 20008KT 15SM VCFG OVC002 00/00 A2978 RMK ST8 VIS NW-NE 3 FG SLP093
ATK PATQ Atqasuk, US Atqasuk Edward Burnell Sr Memorial Airport 7 10 0/-6 29.84 PATQ 232105Z AUTO 08007KT 10SM SCT023 00/M06 A2984 RMK AO2 FZRANO TSNO
CZRP 1 0/-5 CZRP 232100Z AUTO 16001KT M01/M05 RMK AO1 SLP116 T10081054 51011
CXAT 5 0/-3 CXAT 232100Z AUTO 08005KT M00/M04 RMK AO1 SLP161 T10031035 50000
CWRX 8 0/-4 30.02 CWRX 232100Z AUTO 05008KT 330V060 ////SM //// NCD M00/M04 A3002
CWOB 0/0 29.61 CWOB 232100Z AUTO ///// ////SM OVC002 M00/M00 A2961
CWGZ 14 20 5 0/-4 29.97 CWGZ 232100Z 09014G20KT 5SM -SN OVC043 00/M04 A2997 RMK SC8 SLP156
LUR PALU Cape Lisburne, US Cape Lisburne LRRS Airport 17 10 0/-4 29.78 PALU 232055Z AUTO 07017KT 10SM BKN028 00/M05 A2978 RMK AO2 SLP084 T00031046 57007
BRW PABR Utqiaġvik, US Wiley Post Will Rogers Memorial Airport 0 10 0/-4 29.86 PABR 232053Z 00000KT 10SM BKN020 OVC028 00/M04 A2986 RMK AO2 SLP111 T00001044 53002
YCB CYCB Cambridge Bay, CA Cambridge Bay Airport 7 1 1/0 29.85 CYCB 232135Z 03007KT 1SM BR BKN003 01/00 A2985 RMK FG1ST6 VIS VRB 3/4-11/4 VIA CYHZ SLP114
CZCP 5 1/1 25.52 CZCP 232100Z AUTO 05005KT ////SM //// OVC002 01/01 A2552
YFB CYFB Iqaluit, CA Iqaluit Airport 19 26 3 1/0 29.51 CYFB 232100Z 12019G26KT 3SM -SN VV011 01/00 A2951 RMK SN8 SLP999
YCY CYCY Clyde River, CA Clyde River Airport 12 25 1/-3 30.06 CYCY 232100Z CCA 16012KT 25SM FEW030 FEW070 FEW150 BKN250 01/M03 A3006 RMK SC1AC1AC1CI4 AC TR S0.0 AFT 13UTC/LAST STFD OBS/NEXT 241400UTC SLP184
CWPX 8 1/1 29.82 CWPX 232100Z AUTO 06008KT ////SM //// OVC003 01/01 A2982
EGS BIEG Egilsstaðir, IS Egilsstaðir Airport 4 6.21 1/0 29.56 BIEG 232100Z 03004KT 9999 RADZ FEW005 BKN008 OVC011 01/00 Q1001
AEY BIAR Akureyri, IS Akureyri Airport 3 4.97 1/0 29.65 BIAR 232100Z 32003KT 280V020 8000 -RA BR FEW007 BKN018 OVC050 01/00 Q1004
PHO PAPO Point Hope, US Point Hope Airport 16 10 1/-5 29.76 PAPO 232056Z AUTO 04016KT 10SM FEW028 02/M06 A2976 RMK AO2 SLP076 T00171056 58013 FZRANO
KVL PAVL Kivalina, US Kivalina Airport 7 10 1/-4 29.69 PAVL 232053Z AUTO 36007KT 10SM CLR 02/M04 A2969 RMK AO2 SLP053 T00171044 58008 TSNO
YOC CYOC Old Crow, CA Old Crow Airport 18 24 1.5 2/0 29.57 CYOC 232134Z CCA 03018G24KT 1 1/2SM -SNRA BLSN SCT040 OVC072 02/00 A2957 RMK SN3SC1AS4 SN WET/VIS E 20 SLP030
ULN ZMUB Ulan Bator, MN Buyant-Ukhaa International Airport 0 6.21 2/-2 30.03 ZMUB 232130Z 00000MPS 9999 SCT100 02/M02 Q1017 NOSIG RMK QFE655.4 81 NT
YTE CYTE Cape Dorset, CA Cape Dorset Airport 24 30 9 2/1 29.39 CYTE 232129Z AUTO 07024G30KT 9SM -RA BKN010 OVC014 02/01 A2939 RMK SLP957
CZEV 8 2/2 CZEV 232100Z AUTO 05008KT 02/02 RMK AO1 SLP063 T00240024 56005
YZS CYZS Coral Harbour, CA Coral Harbour Airport 23 30 15 2/-2 29.74 CYZS 232100Z 02023G30KT 15SM SCT021 BKN120 02/M02 A2974 RMK SC3AC4 SLP078
YYH CYYH Taloyoak, CA Taloyoak Airport 9 1 2/2 29.87 CYYH 232100Z 15009KT 1SM -DZ BR BKN007 OVC012 02/02 A2987 RMK FG2SC5SC1 VIS S 15 AND W 10 SLP118
YVM CYVM Qikiqtarjuaq, CA Qikiqtarjuaq Airport 6 9 2/-2 30.04 CYVM 232100Z AUTO 17006KT 120V190 9SM OVC041 02/M02 A3004 RMK SLP174
YUX CYUX Hall Beach, CA Hall Beach Airport 7 10 2/0 30.00 CYUX 232100Z 07007KT 10SM FEW140 SCT200 02/M00 A3000 RMK AC2CI1 SLP162